Impacts TAF Board
For situational awareness. Not to be used for flight planning purposes.
IDs:

KLAX - Los Angeles Intl, CA, US

Issued at 2207 UTC 15 Oct 2018
Updated at 2308 UTC 15 Oct 2018
Potential Impact None Slight Moderate High
Time2253Z 16/00Z 16/01Z 16/02Z 16/03Z 16/04Z 16/05Z 16/06Z 16/07Z 16/08Z 16/09Z 16/10Z 16/11Z 16/12Z>>
Type OBS PRVL PRVL PRVL PRVL PRVL PRVL PRVL PRVL PRVL PRVL PRVL PRVL PRVL
VIS 10 >6 >6 >6 >6 >6 >6 >6 >6 >6 >6 >6 >6 >6
CIG -- -- -- -- -- -- -- -- -- -- -- -- -- --
Cover CLR SKC SKC SKC SKC SKC SKC SKC SKC SKC SKC SKC SKC SKC
FltCat VFR VFR VFR VFR VFR VFR VFR VFR VFR VFR VFR VFR VFR VFR
WX -- -- -- -- -- -- -- -- -- -- -- -- -- --
WDir 30 290 290 290 VRB VRB VRB VRB VRB VRB VRB VRB VRB VRB
WSpd 11 8 8 8 3 3 3 3 3 3 3 3 3 3
WGst -- -- -- -- -- -- -- -- -- -- -- -- -- --
Raw TAF
KLAX 152207Z 1522/1624 36011KT P6SM SKC
  FM160000 29008KT P6SM SKC
  FM160300 VRB03KT P6SM SKC
  FM161400 02007KT P6SM SKC
  FM162000 26008KT P6SM SKC


Raw METAR
KLAX 152253Z 03011KT 10SM CLR 28/M19 A3000 RMK AO2 SLP157 T02831189
KLAX 152153Z 36011KT 10SM CLR 28/M17 A3000 RMK AO2 SLP159 T02831172
KLAX 152053Z 01013G18KT 10SM CLR 28/M16 A3001 RMK AO2 SLP163 T02781161 58016

METAR Board
Radar Display
Forecast Discussion
For situational awareness. Not to be used for flight planning purposes.